createdAt,value
2022-08-31T01:26:18.574Z,1022.18
2022-08-31T05:46:09.976Z,1022.64
2022-08-31T09:37:24.655Z,1022.96
2022-08-31T09:47:03.206Z,1022.96
2022-08-31T09:56:40.935Z,1022.89
2022-08-31T10:06:20.664Z,1022.82
2022-08-31T10:15:54.635Z,1022.85
2022-08-31T10:25:31.922Z,1022.68
2022-08-31T10:35:10.735Z,1022.79
2022-08-31T10:44:46.103Z,1022.09
2022-08-31T10:54:25.071Z,1022.59
2022-08-31T11:04:07.162Z,1022.57
2022-08-31T11:13:49.689Z,1022.48
2022-08-31T11:23:28.572Z,1022.42
2022-08-31T11:33:07.821Z,1022.31
2022-08-31T11:42:46.999Z,1022.23
2022-08-31T11:52:23.841Z,1022.27
2022-08-31T12:02:00.780Z,1022.16
2022-08-31T12:11:37.409Z,1022.24
2022-08-31T12:30:51.175Z,1022.26
2022-08-31T12:40:31.612Z,1022.18
2022-08-31T12:50:07.572Z,1022.07
2022-08-31T13:00:00.406Z,1022.09
2022-08-31T13:09:23.899Z,1022.16
2022-08-31T13:18:59.852Z,1022.14
2022-08-31T13:38:17.809Z,1021.92
2022-08-31T13:47:58.016Z,1021.84
2022-08-31T13:57:37.616Z,1021.74
2022-08-31T14:07:17.469Z,1021.72
2022-08-31T14:16:52.926Z,1021.71
2022-08-31T14:26:27.329Z,1021.64
2022-08-31T14:36:03.361Z,1021.62
2022-08-31T14:45:39.699Z,1021.57
2022-08-31T14:55:16.632Z,1021.47
2022-08-31T15:04:54.028Z,1021.42
2022-08-31T15:14:32.128Z,1021.47
2022-08-31T15:24:12.731Z,1021.5
2022-08-31T15:33:50.253Z,1021.49
2022-08-31T15:43:26.845Z,1021.45
2022-08-31T15:53:08.806Z,1021.5
2022-08-31T16:12:15.506Z,1021.39
2022-08-31T16:21:51.762Z,1021.39
2022-08-31T16:31:28.218Z,1021.38
2022-08-31T16:41:04.974Z,1021.41
2022-08-31T16:50:41.483Z,1021.46
2022-08-31T17:00:18.374Z,1021.52
2022-08-31T17:09:55.109Z,1021.61
2022-08-31T17:29:08.594Z,1021.69
2022-08-31T17:38:45.954Z,1021.71
2022-08-31T17:48:23.036Z,1021.76
2022-08-31T17:57:59.875Z,1021.8
2022-08-31T18:07:36.598Z,1021.9
2022-08-31T18:17:12.935Z,1021.77
2022-08-31T18:26:49.716Z,1021.73
2022-08-31T18:36:26.029Z,1022.24
2022-08-31T18:46:02.802Z,1022.28
2022-08-31T18:55:38.741Z,1022.38
2022-08-31T19:05:15.469Z,1022.46
2022-08-31T19:14:52.952Z,1022.78
2022-08-31T19:24:29.960Z,1022.32
2022-08-31T19:34:07.940Z,1022.6
2022-08-31T19:43:52.185Z,1022.54
2022-08-31T19:53:22.241Z,1022.6
2022-08-31T20:02:58.906Z,1022.58
2022-08-31T20:12:35.626Z,1022.69
2022-08-31T20:22:12.577Z,1022.74
2022-08-31T20:41:26.779Z,1022.69
2022-08-31T21:00:41.394Z,1022.84
2022-08-31T21:19:56.559Z,1022.81
2022-08-31T21:39:10.622Z,1022.84
2022-08-31T21:58:26.026Z,1022.73
2022-08-31T22:08:03.683Z,1022.79
2022-08-31T22:36:54.955Z,1022.73
